Time;durP1;ratioP1;P1;durP2;ratioP2;P2;SDS_P1;SDS_P2;PMS_P1;PMS_P2;Temp;Humidity;BMP_temperature;BMP_pressure;BME280_temperature;BME280_humidity;BME280_pressure;Samples;Min_cycle;Max_cycle;Signal;HPM_P1;HPM_P2
2021/12/18 00:01:18;;;;;;;33.53;19.80;;;1.20;99.90;;;;;;5115081;28;20172;-78
2021/12/18 00:03:45;;;;;;;35.73;17.77;;;1.20;99.90;;;;;;5114987;28;20740;-78
2021/12/18 00:06:12;;;;;;;36.23;19.77;;;1.20;99.90;;;;;;5113524;28;20439;-78
2021/12/18 00:08:38;;;;;;;34.70;19.10;;;1.30;99.90;;;;;;5113864;28;20504;-78
2021/12/18 00:11:04;;;;;;;32.93;17.47;;;1.20;99.90;;;;;;5116101;28;20431;-78
2021/12/18 00:13:30;;;;;;;39.70;18.57;;;1.20;99.90;;;;;;5115896;28;20478;-78
2021/12/18 00:15:55;;;;;;;29.13;16.10;;;1.20;99.90;;;;;;5116381;28;20457;-78
2021/12/18 00:18:21;;;;;;;34.83;17.13;;;1.20;99.90;;;;;;5115024;28;20569;-78
2021/12/18 00:20:47;;;;;;;29.03;16.57;;;1.10;99.90;;;;;;5113292;28;20172;-78
2021/12/18 00:23:13;;;;;;;38.63;17.17;;;1.10;99.90;;;;;;5113503;28;20171;-78
2021/12/18 00:25:40;;;;;;;37.17;17.83;;;1.00;99.90;;;;;;5113327;28;20790;-78
2021/12/18 00:28:06;;;;;;;31.33;16.37;;;;;;;;;;5114792;28;20175;-78
2021/12/18 00:30:33;;;;;;;35.90;16.47;;;1.00;99.90;;;;;;5113178;28;20401;-79
2021/12/18 00:32:59;;;;;;;34.67;16.17;;;1.10;99.90;;;;;;5114352;28;20439;-78
2021/12/18 00:35:25;;;;;;;31.67;16.80;;;1.00;99.90;;;;;;5114598;28;20962;-78
2021/12/18 00:37:51;;;;;;;35.50;17.20;;;1.00;99.90;;;;;;5117535;28;20504;-77
2021/12/18 00:40:23;;;;;;;35.13;16.27;;;1.00;99.90;;;;;;5118245;28;20572;-78
2021/12/18 00:45:17;;;;;;;25.00;15.27;;;1.00;99.90;;;;;;5118950;28;20482;-79
2021/12/18 00:47:45;;;;;;;35.23;14.93;;;1.00;99.90;;;;;;5117861;28;20413;-78
2021/12/18 00:50:16;;;;;;;33.37;16.30;;;0.90;99.90;;;;;;5119011;28;20408;-78
2021/12/18 00:52:43;;;;;;;25.40;14.90;;;0.90;99.90;;;;;;5118922;28;20389;-78
2021/12/18 00:55:09;;;;;;;56.23;17.20;;;0.90;99.90;;;;;;5116707;28;20464;-77
2021/12/18 00:57:36;;;;;;;41.87;17.73;;;0.90;99.90;;;;;;5118852;28;20813;-78
2021/12/18 01:00:05;;;;;;;47.87;18.70;;;1.00;99.90;;;;;;5117958;28;20433;-77
2021/12/18 01:02:31;;;;;;;35.37;16.90;;;0.90;99.90;;;;;;5118206;28;20903;-79
2021/12/18 01:04:57;;;;;;;32.93;16.07;;;0.90;99.90;;;;;;5117062;28;20514;-78
2021/12/18 01:07:23;;;;;;;30.77;16.03;;;0.80;99.90;;;;;;5118042;28;20197;-78
2021/12/18 01:10:11;;;;;;;29.23;15.00;;;0.80;99.90;;;;;;5118022;28;20175;-77
2021/12/18 01:12:41;;;;;;;57.20;14.63;;;0.80;99.90;;;;;;5116723;28;20750;-78
2021/12/18 01:15:30;;;;;;;31.67;16.10;;;0.70;99.90;;;;;;5116429;28;20460;-78
2021/12/18 01:23:25;;;;;;;29.53;15.10;;;0.70;99.90;;;;;;5118216;28;20388;-78
2021/12/18 01:25:53;;;;;;;49.77;16.77;;;0.60;99.90;;;;;;5117577;28;20425;-78
2021/12/18 01:28:19;;;;;;;26.93;15.83;;;0.70;99.90;;;;;;5117264;28;20175;-78
2021/12/18 01:30:45;;;;;;;35.27;16.63;;;;;;;;;;5117518;28;20412;-77
2021/12/18 01:33:11;;;;;;;28.47;15.73;;;0.70;99.90;;;;;;5117330;28;20886;-78
2021/12/18 01:35:37;;;;;;;29.67;15.73;;;0.70;99.90;;;;;;5117207;28;20471;-78
2021/12/18 01:38:03;;;;;;;54.30;15.77;;;0.70;99.90;;;;;;5117467;28;20175;-78
2021/12/18 01:40:30;;;;;;;29.43;16.07;;;0.80;99.90;;;;;;5115869;28;20633;-78
2021/12/18 01:53:31;;;;;;;35.27;16.40;;;;;;;;;;5117679;28;20455;-77
2021/12/18 01:55:57;;;;;;;34.80;16.63;;;;;;;;;;5115802;28;20465;-79
2021/12/18 01:58:24;;;;;;;36.43;15.60;;;;;;;;;;5117568;28;20413;-78
2021/12/18 02:00:52;;;;;;;31.67;16.13;;;0.50;99.90;;;;;;5115546;28;20414;-78
2021/12/18 02:03:19;;;;;;;32.03;15.50;;;;;;;;;;5117217;28;20416;-78
2021/12/18 02:05:48;;;;;;;31.13;15.67;;;0.60;99.90;;;;;;5115646;28;20524;-78
2021/12/18 02:08:18;;;;;;;33.57;18.00;;;0.50;99.90;;;;;;5116917;28;20409;-78
2021/12/18 02:10:48;;;;;;;32.47;16.63;;;;;;;;;;5115227;28;21011;-78
2021/12/18 02:21:29;;;;;;;27.90;15.33;;;;;;;;;;5116628;28;20910;-77
2021/12/18 02:23:56;;;;;;;37.70;18.93;;;0.60;99.90;;;;;;5116666;28;20401;-78
2021/12/18 02:26:22;;;;;;;36.20;18.87;;;;;;;;;;5116392;28;20436;-77
2021/12/18 02:28:50;;;;;;;34.83;18.03;;;0.60;99.90;;;;;;5115367;28;20915;-78
2021/12/18 02:31:17;;;;;;;32.87;17.53;;;0.60;99.90;;;;;;5115927;28;20420;-77
2021/12/18 02:33:43;;;;;;;30.50;16.33;;;;;;;;;;5116710;28;20771;-78
2021/12/18 02:36:11;;;;;;;34.27;17.43;;;;;;;;;;5117359;28;20492;-78
2021/12/18 02:41:28;;;;;;;27.90;15.43;;;0.40;99.90;;;;;;5117813;27;20760;-77
2021/12/18 02:43:54;;;;;;;29.20;15.07;;;;;;;;;;5115726;28;20823;-77
2021/12/18 02:46:21;;;;;;;26.67;14.87;;;;;;;;;;5117312;28;20911;-78
2021/12/18 02:48:49;;;;;;;29.23;17.13;;;0.30;99.90;;;;;;5122119;28;20437;-78
2021/12/18 02:51:16;;;;;;;28.93;16.47;;;0.10;99.90;;;;;;5116015;28;20409;-78
2021/12/18 02:53:47;;;;;;;31.50;17.87;;;0.20;99.90;;;;;;5115847;27;20785;-78
2021/12/18 02:56:14;;;;;;;30.03;17.33;;;0.40;99.90;;;;;;5115933;28;20461;-77
2021/12/18 02:58:42;;;;;;;33.17;18.30;;;0.40;99.90;;;;;;5114546;28;20934;-78
2021/12/18 03:01:11;;;;;;;33.97;17.13;;;0.50;99.90;;;;;;5115335;28;20409;-78
2021/12/18 03:03:40;;;;;;;30.63;18.43;;;1.40;99.90;;;;;;5115700;28;20891;-78
2021/12/18 03:06:33;;;;;;;28.33;17.90;;;0.40;99.90;;;;;;5115659;28;20433;-77
2021/12/18 03:27:17;;;;;;;28.10;16.67;;;0.40;99.90;;;;;;5115576;28;20767;-78
2021/12/18 03:29:43;;;;;;;28.90;16.03;;;0.30;99.90;;;;;;5113865;28;20413;-77
2021/12/18 03:32:09;;;;;;;31.40;18.20;;;;;;;;;;5115086;28;20416;-78
2021/12/18 03:34:35;;;;;;;31.47;17.20;;;;;;;;;;5115142;28;20199;-78
2021/12/18 03:37:02;;;;;;;25.80;15.60;;;0.70;99.90;;;;;;5115158;28;20895;-78
2021/12/18 03:39:28;;;;;;;29.20;15.97;;;;;;;;;;5115249;28;20168;-77
2021/12/18 03:41:54;;;;;;;27.67;16.20;;;;;;;;;;5115134;28;20409;-77
2021/12/18 03:44:21;;;;;;;25.17;15.43;;;0.40;99.90;;;;;;5113957;28;20441;-79
2021/12/18 03:46:47;;;;;;;23.67;13.83;;;;;;;;;;5115075;28;20842;-78
2021/12/18 03:49:13;;;;;;;25.33;15.10;;;;;;;;;;5113421;28;20478;-77
2021/12/18 03:51:39;;;;;;;25.10;15.63;;;;;;;;;;5114905;28;20405;-78
2021/12/18 03:54:05;;;;;;;24.37;15.77;;;;;;;;;;5113286;28;20934;-78
2021/12/18 03:56:32;;;;;;;27.50;15.70;;;;;;;;;;5114588;28;20918;-78
2021/12/18 03:58:58;;;;;;;25.30;14.53;;;;;;;;;;5113613;28;20965;-77
2021/12/18 04:01:25;;;;;;;24.70;15.93;;;0.40;99.90;;;;;;5113299;28;20781;-77
2021/12/18 04:03:51;;;;;;;24.87;15.47;;;;;;;;;;5114834;28;20484;-78
2021/12/18 04:06:17;;;;;;;27.47;15.30;;;;;;;;;;5114651;28;20455;-78
2021/12/18 04:08:43;;;;;;;26.93;15.27;;;;;;;;;;5114510;28;20413;-78
2021/12/18 04:11:10;;;;;;;24.23;15.03;;;0.60;99.90;;;;;;5115077;28;20413;-78
2021/12/18 04:13:36;;;;;;;25.53;16.00;;;;;;;;;;5119008;28;20417;-77
2021/12/18 04:16:02;;;;;;;26.43;16.03;;;;;;;;;;5118794;28;20460;-77
2021/12/18 04:18:28;;;;;;;27.00;15.10;;;;;;;;;;5119018;28;20773;-78
2021/12/18 04:20:54;;;;;;;25.30;14.00;;;0.50;99.90;;;;;;5117138;28;20795;-77
2021/12/18 04:23:20;;;;;;;24.10;13.47;;;;;;;;;;5118350;28;20604;-77
2021/12/18 04:25:47;;;;;;;25.90;14.97;;;;;;;;;;5118616;28;20195;-78
2021/12/18 04:28:12;;;;;;;24.07;15.17;;;0.40;99.90;;;;;;5117048;28;20420;-77
2021/12/18 04:30:38;;;;;;;22.63;13.97;;;0.60;99.90;;;;;;5118203;28;20417;-78
2021/12/18 04:33:04;;;;;;;26.03;15.40;;;1.00;99.90;;;;;;5118360;28;20273;-78
2021/12/18 04:35:30;;;;;;;26.07;14.67;;;;;;;;;;5118619;28;20675;-78
2021/12/18 04:37:56;;;;;;;25.63;14.30;;;0.50;99.90;;;;;;5118751;28;20224;-78
2021/12/18 04:40:26;;;;;;;24.50;15.03;;;;;;;;;;5118264;28;20484;-78
2021/12/18 04:42:53;;;;;;;23.80;13.63;;;0.60;99.90;;;;;;5118395;28;20148;-78
2021/12/18 04:45:19;;;;;;;23.03;14.13;;;0.40;99.90;;;;;;5118120;28;20428;-78
2021/12/18 04:47:45;;;;;;;26.80;15.70;;;0.40;99.90;;;;;;5116799;28;20447;-77
2021/12/18 04:50:11;;;;;;;24.50;14.87;;;;;;;;;;5117859;28;20183;-79
2021/12/18 04:52:37;;;;;;;26.23;15.67;;;;;;;;;;5118252;28;20207;-78
2021/12/18 04:55:04;;;;;;;25.87;15.17;;;0.40;99.90;;;;;;5116978;28;20272;-78
2021/12/18 04:57:30;;;;;;;28.37;15.43;;;;;;;;;;5118576;28;20423;-78
2021/12/18 04:59:57;;;;;;;27.37;14.20;;;;;;;;;;5119366;28;20441;-78
2021/12/18 05:02:33;;;;;;;25.47;14.47;;;;;;;;;;5119069;28;20409;-77
2021/12/18 05:04:58;;;;;;;25.03;14.50;;;0.30;99.90;;;;;;5122420;28;20433;-77
2021/12/18 05:07:24;;;;;;;24.77;14.67;;;0.20;99.90;;;;;;5118450;28;20413;-78
2021/12/18 05:09:50;;;;;;;25.93;15.77;;;0.60;99.90;;;;;;5118105;28;20176;-79
2021/12/18 05:12:16;;;;;;;25.03;13.97;;;0.00;99.90;;;;;;5117638;28;20934;-77
2021/12/18 05:14:41;;;;;;;29.00;16.87;;;0.20;99.90;;;;;;5117706;28;20206;-78
2021/12/18 05:17:07;;;;;;;27.13;14.90;;;0.20;99.90;;;;;;5116479;28;20180;-77
2021/12/18 05:19:33;;;;;;;24.67;14.03;;;;;;;;;;5117748;28;20626;-77
2021/12/18 05:21:59;;;;;;;26.93;14.80;;;0.20;99.90;;;;;;5117020;28;20172;-78
2021/12/18 05:24:25;;;;;;;28.60;16.10;;;;;;;;;;5117286;28;20172;-77
2021/12/18 05:26:51;;;;;;;29.80;15.37;;;;;;;;;;5117861;28;20651;-77
2021/12/18 05:29:16;;;;;;;27.77;15.53;;;0.20;99.90;;;;;;5116292;28;20413;-78
2021/12/18 05:31:43;;;;;;;32.13;17.00;;;;;;;;;;5116984;28;20180;-77
2021/12/18 05:34:09;;;;;;;26.60;15.43;;;;;;;;;;5117550;28;20167;-77
2021/12/18 05:39:19;;;;;;;27.67;15.73;;;0.00;99.90;;;;;;5117679;28;20447;-77
2021/12/18 05:41:47;;;;;;;31.10;16.63;;;0.20;99.90;;;;;;5117141;28;20886;-77
2021/12/18 05:44:14;;;;;;;31.07;16.00;;;;;;;;;;5117447;28;20224;-77
2021/12/18 05:46:40;;;;;;;29.90;15.57;;;0.10;99.90;;;;;;5117061;28;20926;-77
2021/12/18 05:49:06;;;;;;;29.43;16.20;;;;;;;;;;5117124;28;20443;-77
2021/12/18 05:51:32;;;;;;;34.73;16.67;;;0.20;99.90;;;;;;5118016;28;20175;-77
2021/12/18 05:53:58;;;;;;;34.50;16.80;;;;;;;;;;5123619;27;20525;-77
2021/12/18 05:56:24;;;;;;;31.60;15.87;;;;;;;;;;5116616;28;20478;-78
2021/12/18 05:58:50;;;;;;;26.10;14.17;;;0.10;99.90;;;;;;5115182;28;20457;-78
2021/12/18 06:01:16;;;;;;;26.67;13.90;;;0.10;99.90;;;;;;5116591;28;20179;-77
2021/12/18 06:03:42;;;;;;;32.10;14.57;;;0.20;99.90;;;;;;5114977;28;20179;-77
2021/12/18 06:06:08;;;;;;;31.80;14.77;;;0.00;99.90;;;;;;5115089;28;20268;-77
2021/12/18 06:08:35;;;;;;;33.57;12.73;;;0.00;99.90;;;;;;5116440;28;20414;-77
